Bloomfield, Michigan
Current Conditions -  °F | °C
As of 5:35 AM on Monday 26 Jan 2015 (Local Time) from KVLL Reporting Station
Clear Clear  
Wind Chill: 13°   Ceiling: Unl
Heat Index: 13°   Visibility: 10mi
Dew Point:   Wind: 3mph
Humidity: 70%   Direction: 10°N
Pressure: 29.95"   Gusts: NA
Location:  42.5836°N, 83.2458°W
Report Text: KVLL 261035Z AUTO 01003KT 10SM CLR M10/M15 A2995 RMK AO2 T11051151
Loading
Personal Weather Stations






























Interactive Weather Map New forecast layout! Learn more

10-Day Weather Forecast

Advertisements
Track Severe Weather on mobile